Cruise inventory

Prince Madog ISIS6

Cruise plan

Cruise Info. 
Ship name (ship code)Prince Madog (74PD)
Cruise identifierISIS6
Cruise period1979-06-18 — 1979-06-21
StatusCompleted
ObjectivesSurvey cruise contributing to research directed toward an understanding of how the physics of the Irish Sea and surrounding regions (Celtic Sea, St, George's Channel, North Channel and Clyde Sea) determined biogeochemical processes and sediment transport.
ProjectInterdisciplinary Study of the Irish Sea
Data held at BODC 
Series/Profiles 
48  CTD/STD cast
Vertical spatial coordinates
Salinity of the water column
Temperature of the water column
Vertical spatial coordinates
Salinity of the water column
Temperature of the water column

BODC idDate/TimeLocationDoc.
689821979-06-21 12:34 53° 45' 21" N  5° 24' 43" W  View metadata report for BODC series reference number 68982
689941979-06-21 13:34 53° 43' 40" N  5° 17' 52" W  View metadata report for BODC series reference number 68994
690081979-06-21 16:11 53° 35' 6" N  5° 2' 49" W  View metadata report for BODC series reference number 69008
688281979-06-20 19:18 53° 49' 1" N  4° 27' 21" W  View metadata report for BODC series reference number 68828
688411979-06-20 20:57 53° 49' 15" N  4° 40' 58" W  View metadata report for BODC series reference number 68841
688531979-06-20 22:32 53° 40' 55" N  4° 39' 57" W  View metadata report for BODC series reference number 68853
688651979-06-20 23:46 53° 40' 29" N  4° 54' 18" W  View metadata report for BODC series reference number 68865
688771979-06-21 00:36 53° 40' 33" N  5° 0' 21" W  View metadata report for BODC series reference number 68877
688891979-06-21 01:36 53° 41' 27" N  5° 7' 37" W  View metadata report for BODC series reference number 68889
688901979-06-21 02:30 53° 41' 2" N  5° 13' 29" W  View metadata report for BODC series reference number 68890
689081979-06-21 03:35 53° 41' 9" N  5° 20' 38" W  View metadata report for BODC series reference number 68908
689211979-06-21 04:32 53° 41' 23" N  5° 27' 57" W  View metadata report for BODC series reference number 68921
689331979-06-21 05:37 53° 41' 42" N  5° 33' 39" W  View metadata report for BODC series reference number 68933
689451979-06-21 06:31 53° 41' 49" N  5° 41' 2" W  View metadata report for BODC series reference number 68945
689571979-06-21 07:26 53° 40' 58" N  5° 47' 31" W  View metadata report for BODC series reference number 68957
689691979-06-21 09:13 53° 48' 53" N  5° 45' 39" W  View metadata report for BODC series reference number 68969
689701979-06-21 10:56 53° 51' 14" N  5° 32' 13" W  View metadata report for BODC series reference number 68970
684841979-06-18 21:51 53° 41' 23" N  5° 14' 27" W  View metadata report for BODC series reference number 68484
684961979-06-18 23:09 53° 39' 7" N  5° 8' 5" W  View metadata report for BODC series reference number 68496
685031979-06-19 00:18 53° 35' 31" N  5° 2' 59" W  View metadata report for BODC series reference number 68503
685151979-06-19 02:23 53° 44' 24" N  5° 18' 10" W  View metadata report for BODC series reference number 68515
685271979-06-19 03:20 53° 46' 55" N  5° 23' 5" W  View metadata report for BODC series reference number 68527
685391979-06-19 04:25 53° 48' 21" N  5° 27' 57" W  View metadata report for BODC series reference number 68539
685401979-06-19 05:22 53° 51' 0" N  5° 32' 49" W  View metadata report for BODC series reference number 68540
685521979-06-19 06:48 53° 55' 55" N  5° 43' 15" W  View metadata report for BODC series reference number 68552
685641979-06-19 10:23 53° 51' 7" N  5° 33' 36" W  View metadata report for BODC series reference number 68564
685761979-06-19 13:07 53° 41' 45" N  5° 14' 2" W  View metadata report for BODC series reference number 68576
685881979-06-19 15:43 53° 40' 58" N  5° 7' 51" W  View metadata report for BODC series reference number 68588
686071979-06-19 17:26 53° 41' 23" N  4° 54' 46" W  View metadata report for BODC series reference number 68607
686191979-06-19 18:56 53° 41' 2" N  4° 40' 51" W  View metadata report for BODC series reference number 68619
686201979-06-19 20:40 53° 40' 29" N  4° 28' 1" W  View metadata report for BODC series reference number 68620
686321979-06-19 22:32 53° 40' 51" N  4° 14' 24" W  View metadata report for BODC series reference number 68632
686441979-06-19 23:52 53° 40' 29" N  4° 6' 39" W  View metadata report for BODC series reference number 68644
686561979-06-20 00:52 53° 40' 29" N  3° 59' 49" W  View metadata report for BODC series reference number 68656
686681979-06-20 01:54 53° 40' 44" N  3° 53' 13" W  View metadata report for BODC series reference number 68668
686811979-06-20 02:42 53° 40' 40" N  3° 47' 9" W  View metadata report for BODC series reference number 68681
686931979-06-20 03:28 53° 40' 22" N  3° 40' 44" W  View metadata report for BODC series reference number 68693
687001979-06-20 04:21 53° 40' 40" N  3° 32' 31" W  View metadata report for BODC series reference number 68700
687121979-06-20 05:06 53° 40' 51" N  3° 26' 20" W  View metadata report for BODC series reference number 68712
687241979-06-20 05:53 53° 40' 47" N  3° 19' 15" W  View metadata report for BODC series reference number 68724
687361979-06-20 06:49 53° 44' 49" N  3° 18' 53" W  View metadata report for BODC series reference number 68736
687481979-06-20 07:48 53° 49' 1" N  3° 18' 32" W  View metadata report for BODC series reference number 68748
687611979-06-20 08:58 53° 49' 4" N  3° 26' 16" W  View metadata report for BODC series reference number 68761
687731979-06-20 10:04 53° 48' 50" N  3° 33' 43" W  View metadata report for BODC series reference number 68773
687851979-06-20 11:19 53° 48' 50" N  3° 39' 43" W  View metadata report for BODC series reference number 68785
687971979-06-20 12:27 53° 48' 43" N  3° 46' 58" W  View metadata report for BODC series reference number 68797
688041979-06-20 14:40 53° 40' 55" N  4° 0' 35" W  View metadata report for BODC series reference number 68804
688161979-06-20 16:47 53° 48' 43" N  4° 13' 11" W  View metadata report for BODC series reference number 68816